createdAt,value
2022-12-29T00:00:04.510Z,36.03
2022-12-29T00:00:27.309Z,34.55
2022-12-29T00:00:50.145Z,32.95
2022-12-29T00:01:15.625Z,34.05
2022-12-29T00:01:38.484Z,34.58
2022-12-29T00:02:01.284Z,35.60
2022-12-29T00:02:25.132Z,32.33
2022-12-29T00:02:49.579Z,34.15
2022-12-29T00:03:12.772Z,34.47
2022-12-29T00:03:36.692Z,33.63
2022-12-29T00:03:59.667Z,34.67
2022-12-29T00:04:22.582Z,33.92
2022-12-29T00:04:45.556Z,33.72
2022-12-29T00:05:08.839Z,33.03
2022-12-29T00:05:31.634Z,35.90
2022-12-29T00:05:57.623Z,35.58
2022-12-29T00:06:20.315Z,34.00
2022-12-29T00:06:43.264Z,32.85
2022-12-29T00:07:06.399Z,30.25
2022-12-29T00:07:29.462Z,32.45
2022-12-29T00:07:54.954Z,30.52
2022-12-29T00:08:17.720Z,31.35
2022-12-29T00:08:41.147Z,33.97
2022-12-29T00:09:04.629Z,31.63
2022-12-29T00:09:30.054Z,31.48
2022-12-29T00:09:52.802Z,33.40
2022-12-29T00:10:15.679Z,31.75
2022-12-29T00:10:38.450Z,30.38
2022-12-29T00:11:01.273Z,33.63
2022-12-29T00:11:24.872Z,32.88
2022-12-29T00:11:47.595Z,31.45
2022-12-29T00:12:10.345Z,30.15
2022-12-29T00:12:53.121Z,31.90
2022-12-29T00:13:34.800Z,32.45
2022-12-29T00:14:19.224Z,33.67
2022-12-29T00:15:02.988Z,30.42
2022-12-29T00:15:37.979Z,31.92
2022-12-29T00:16:00.913Z,33.00
2022-12-29T00:16:23.966Z,33.63
2022-12-29T00:16:46.714Z,32.90
2022-12-29T00:17:09.601Z,34.75
2022-12-29T00:17:32.366Z,33.40
2022-12-29T00:17:56.626Z,31.95
2022-12-29T00:18:19.388Z,31.38
2022-12-29T00:18:42.095Z,32.38
2022-12-29T00:19:07.365Z,32.10
2022-12-29T00:19:48.936Z,30.80
2022-12-29T00:20:30.548Z,33.67
2022-12-29T00:21:14.097Z,31.60
2022-12-29T00:21:55.696Z,32.95
2022-12-29T00:22:37.140Z,32.15
2022-12-29T00:23:19.004Z,34.97
2022-12-29T00:24:00.565Z,33.47
2022-12-29T00:24:23.293Z,31.77
2022-12-29T00:25:01.419Z,32.05
2022-12-29T00:25:56.582Z,31.67
2022-12-29T00:26:37.944Z,34.10
2022-12-29T00:27:31.664Z,32.35
2022-12-29T00:28:12.814Z,33.97
2022-12-29T00:28:55.529Z,33.65
2022-12-29T00:29:37.179Z,33.28
2022-12-29T00:30:19.921Z,31.67
2022-12-29T00:31:01.468Z,33.50
2022-12-29T00:31:42.608Z,32.25
2022-12-29T00:32:24.281Z,33.00
2022-12-29T00:33:05.768Z,34.13
2022-12-29T00:33:49.841Z,31.83
2022-12-29T00:34:31.513Z,30.50
2022-12-29T00:35:09.631Z,35.15
2022-12-29T00:35:34.852Z,31.52
2022-12-29T00:35:59.051Z,33.35
2022-12-29T00:36:23.257Z,35.05
2022-12-29T00:36:46.081Z,35.25
2022-12-29T00:37:08.885Z,34.33
2022-12-29T00:37:50.076Z,31.67
2022-12-29T00:38:31.524Z,33.60
2022-12-29T00:39:14.675Z,34.00
2022-12-29T00:39:56.170Z,34.70
2022-12-29T00:40:37.625Z,32.70
2022-12-29T00:41:19.055Z,30.35
2022-12-29T00:42:01.675Z,31.50
2022-12-29T00:42:43.275Z,33.95
2022-12-29T00:43:24.871Z,32.92
2022-12-29T00:44:06.179Z,32.50
2022-12-29T00:44:28.967Z,30.83
2022-12-29T00:44:51.730Z,33.30
2022-12-29T00:45:14.725Z,31.88
2022-12-29T00:45:37.464Z,34.17
2022-12-29T00:46:00.394Z,30.90
2022-12-29T00:46:23.275Z,31.17
2022-12-29T00:46:46.190Z,32.05
2022-12-29T00:47:09.090Z,33.22
2022-12-29T00:47:31.779Z,30.95
2022-12-29T00:47:54.643Z,32.28
2022-12-29T00:48:37.390Z,30.25
2022-12-29T00:49:20.230Z,32.47
2022-12-29T00:49:45.541Z,31.85
2022-12-29T00:50:09.130Z,33.67
2022-12-29T00:50:31.867Z,33.95
2022-12-29T00:50:57.369Z,30.90
2022-12-29T00:51:20.363Z,36.83
2022-12-29T00:51:43.214Z,32.75
2022-12-29T00:52:07.413Z,31.38
2022-12-29T00:52:30.201Z,32.75
2022-12-29T00:52:53.022Z,34.92
2022-12-29T00:53:15.851Z,35.40
2022-12-29T00:53:40.380Z,34.22
2022-12-29T00:54:03.199Z,34.63
2022-12-29T00:54:26.102Z,33.72
2022-12-29T00:54:50.111Z,33.03
2022-12-29T00:55:13.392Z,34.42
2022-12-29T00:55:38.430Z,36.45
2022-12-29T00:56:01.178Z,35.92
2022-12-29T00:56:24.001Z,34.67
2022-12-29T00:56:47.740Z,31.55
2022-12-29T00:57:10.791Z,33.05
2022-12-29T00:57:33.595Z,32.85
2022-12-29T00:57:57.053Z,33.20
2022-12-29T00:58:19.767Z,33.95
2022-12-29T00:58:42.619Z,33.53
2022-12-29T00:59:06.301Z,32.17
2022-12-29T00:59:30.022Z,34.92
2022-12-29T00:59:52.862Z,33.50
2022-12-29T01:00:16.119Z,33.50
2022-12-29T01:00:39.989Z,33.13
2022-12-29T01:01:03.603Z,34.53
2022-12-29T01:01:26.578Z,38.63
2022-12-29T01:01:49.711Z,33.15
2022-12-29T01:02:12.913Z,34.13
2022-12-29T01:02:36.048Z,33.25
2022-12-29T01:02:59.534Z,33.55
2022-12-29T01:03:22.482Z,32.47
2022-12-29T01:03:46.130Z,33.90
2022-12-29T01:04:10.923Z,35.13
2022-12-29T01:04:33.790Z,32.55
2022-12-29T01:04:56.560Z,33.63
2022-12-29T01:05:19.529Z,33.03
2022-12-29T01:05:42.314Z,33.30
2022-12-29T01:06:06.145Z,32.80
2022-12-29T01:06:28.946Z,32.13
2022-12-29T01:06:51.695Z,34.35
2022-12-29T01:07:14.517Z,33.33
2022-12-29T01:07:37.245Z,32.03
2022-12-29T01:08:00.176Z,32.80
2022-12-29T01:08:22.882Z,32.17
2022-12-29T01:08:45.640Z,32.35
2022-12-29T01:09:26.962Z,33.60
2022-12-29T01:10:08.756Z,32.60
2022-12-29T01:10:31.581Z,32.00
2022-12-29T01:11:00.635Z,34.10
2022-12-29T01:11:23.372Z,35.10
2022-12-29T01:11:46.131Z,33.78
2022-12-29T01:12:09.662Z,33.40
2022-12-29T01:12:43.447Z,34.15
2022-12-29T01:13:06.252Z,34.00
2022-12-29T01:13:28.988Z,32.75
2022-12-29T01:13:51.684Z,32.25
2022-12-29T01:14:14.511Z,32.13
2022-12-29T01:14:37.807Z,31.48
2022-12-29T01:15:00.576Z,31.17
2022-12-29T01:15:23.712Z,30.73
2022-12-29T01:15:51.243Z,31.58
2022-12-29T01:16:14.031Z,31.85
2022-12-29T01:16:37.713Z,33.55
2022-12-29T01:17:00.614Z,31.35
2022-12-29T01:17:23.375Z,30.35
2022-12-29T01:17:46.139Z,32.90
2022-12-29T01:18:08.956Z,31.73
2022-12-29T01:18:31.814Z,33.17
2022-12-29T01:18:54.636Z,30.27
2022-12-29T01:19:18.992Z,31.00
2022-12-29T01:19:41.829Z,32.65
2022-12-29T01:20:05.291Z,30.40
2022-12-29T01:20:29.680Z,32.72
2022-12-29T01:20:52.560Z,32.97
2022-12-29T01:21:15.525Z,33.63
2022-12-29T01:21:38.215Z,30.77
2022-12-29T01:22:01.121Z,31.23
2022-12-29T01:22:23.915Z,30.85
2022-12-29T01:22:46.589Z,31.10
2022-12-29T01:23:09.345Z,30.15
2022-12-29T01:23:32.254Z,30.38
2022-12-29T01:23:55.035Z,29.40
2022-12-29T01:24:18.676Z,30.83
2022-12-29T01:24:41.451Z,31.42
2022-12-29T01:25:04.789Z,33.60
2022-12-29T01:25:27.531Z,35.00
2022-12-29T01:25:50.289Z,35.05
2022-12-29T01:26:13.234Z,32.20
2022-12-29T01:26:37.045Z,31.75
2022-12-29T01:26:59.910Z,30.35
2022-12-29T01:27:22.743Z,31.05
2022-12-29T01:27:45.564Z,32.10
2022-12-29T01:28:09.460Z,32.83
2022-12-29T01:28:32.266Z,33.50
2022-12-29T01:28:55.610Z,29.92
2022-12-29T01:29:18.494Z,33.60
2022-12-29T01:29:41.290Z,29.02
2022-12-29T01:30:05.478Z,31.40
2022-12-29T01:30:28.320Z,34.05
2022-12-29T01:30:51.574Z,34.95
2022-12-29T01:31:15.612Z,30.65
2022-12-29T01:31:38.816Z,31.23
2022-12-29T01:32:01.619Z,33.83
2022-12-29T01:32:24.510Z,32.78
2022-12-29T01:32:47.250Z,32.05
2022-12-29T01:33:10.140Z,31.13
2022-12-29T01:33:32.930Z,31.20
2022-12-29T01:33:55.702Z,34.47
2022-12-29T01:34:19.967Z,31.10
2022-12-29T01:34:42.721Z,32.22
2022-12-29T01:35:06.414Z,34.40
2022-12-29T01:35:29.129Z,31.80
2022-12-29T01:35:51.946Z,31.67
2022-12-29T01:36:16.099Z,30.70
2022-12-29T01:36:41.079Z,31.08
2022-12-29T01:37:03.853Z,33.60
2022-12-29T01:37:26.900Z,32.35
2022-12-29T01:37:49.701Z,31.52
2022-12-29T01:38:12.575Z,30.40
2022-12-29T01:38:35.759Z,31.27
2022-12-29T01:38:58.493Z,31.13
2022-12-29T01:39:21.360Z,29.88
2022-12-29T01:39:44.155Z,29.40
2022-12-29T01:40:08.034Z,30.05
2022-12-29T01:40:31.179Z,29.35
2022-12-29T01:40:53.940Z,27.88
2022-12-29T01:41:17.232Z,28.27
2022-12-29T01:41:40.129Z,30.98
2022-12-29T01:42:02.888Z,33.13
2022-12-29T01:42:27.302Z,33.03
2022-12-29T01:42:50.078Z,34.45
2022-12-29T01:43:13.131Z,33.05
2022-12-29T01:43:43.464Z,33.88
2022-12-29T01:44:39.206Z,32.97
2022-12-29T01:45:06.649Z,31.67
2022-12-29T01:45:30.302Z,31.60
2022-12-29T01:45:53.505Z,32.53
2022-12-29T01:46:22.244Z,29.65
2022-12-29T01:46:46.525Z,31.88
2022-12-29T01:47:09.597Z,33.22
2022-12-29T01:47:35.070Z,32.58
2022-12-29T01:47:58.880Z,32.22
2022-12-29T01:48:21.724Z,32.70
2022-12-29T01:48:44.484Z,32.00
2022-12-29T01:49:11.811Z,33.15
2022-12-29T01:49:36.013Z,32.17
2022-12-29T01:50:01.479Z,33.63
2022-12-29T01:50:28.234Z,32.70
2022-12-29T01:50:52.111Z,33.42
2022-12-29T01:51:14.882Z,32.25
2022-12-29T01:51:39.047Z,33.50
2022-12-29T01:52:04.019Z,33.50
2022-12-29T01:52:27.977Z,33.80
2022-12-29T01:52:52.862Z,32.28
2022-12-29T01:53:17.194Z,34.13
2022-12-29T01:53:41.119Z,32.78
2022-12-29T01:54:05.186Z,34.00
2022-12-29T01:54:29.491Z,31.50
2022-12-29T01:54:53.192Z,34.00
2022-12-29T01:55:16.275Z,36.33
2022-12-29T01:55:41.742Z,31.38
2022-12-29T01:56:07.175Z,32.22
2022-12-29T01:56:30.023Z,32.45
2022-12-29T01:56:52.730Z,33.20
2022-12-29T01:57:17.870Z,35.75
2022-12-29T01:57:42.153Z,36.92
2022-12-29T01:58:05.808Z,34.67
2022-12-29T01:58:31.082Z,36.75
2022-12-29T01:58:57.158Z,37.95
2022-12-29T01:59:21.798Z,36.55
2022-12-29T01:59:47.202Z,35.60
2022-12-29T02:00:12.161Z,38.40
2022-12-29T02:00:35.245Z,36.72
2022-12-29T02:00:58.120Z,35.45
2022-12-29T02:01:20.999Z,36.95
2022-12-29T02:01:44.032Z,36.80
2022-12-29T02:02:07.058Z,38.45
2022-12-29T02:02:33.176Z,37.83
2022-12-29T02:02:56.368Z,36.03
2022-12-29T02:03:22.221Z,35.53
2022-12-29T02:03:45.085Z,34.42
2022-12-29T02:04:07.896Z,34.10
2022-12-29T02:04:31.662Z,36.58
2022-12-29T02:04:58.919Z,35.55
2022-12-29T02:05:29.176Z,35.55
2022-12-29T02:05:53.929Z,30.75
2022-12-29T02:06:18.890Z,34.80
2022-12-29T02:06:44.321Z,36.08
2022-12-29T02:07:09.126Z,31.98
2022-12-29T02:07:31.845Z,31.40
2022-12-29T02:07:54.694Z,34.20
2022-12-29T02:08:17.490Z,34.13
2022-12-29T02:08:40.325Z,33.92
2022-12-29T02:09:03.138Z,33.53
2022-12-29T02:09:25.915Z,32.85
2022-12-29T02:09:48.860Z,33.90
2022-12-29T02:10:11.672Z,31.80
2022-12-29T02:10:34.546Z,35.33
2022-12-29T02:10:57.366Z,34.03
2022-12-29T02:11:20.543Z,32.97
2022-12-29T02:11:43.259Z,31.33
2022-12-29T02:12:06.245Z,32.35
2022-12-29T02:12:30.050Z,31.35
2022-12-29T02:12:53.105Z,35.85
2022-12-29T02:13:17.652Z,37.50
2022-12-29T02:13:41.044Z,31.42
2022-12-29T02:14:06.415Z,30.92
2022-12-29T02:14:29.209Z,31.35
2022-12-29T02:14:55.368Z,32.15
2022-12-29T02:15:18.240Z,34.25
2022-12-29T02:15:48.165Z,33.22
2022-12-29T02:16:18.599Z,35.58
2022-12-29T02:16:49.109Z,32.33
2022-12-29T02:17:15.318Z,34.28
2022-12-29T02:17:44.805Z,33.85
2022-12-29T02:18:15.997Z,33.17
2022-12-29T02:18:45.449Z,32.92
2022-12-29T02:19:44.387Z,34.10
2022-12-29T02:20:29.040Z,34.50
2022-12-29T02:21:27.295Z,30.30
2022-12-29T02:22:01.594Z,29.92
2022-12-29T02:22:28.322Z,31.40
2022-12-29T02:22:56.714Z,32.45
2022-12-29T02:23:49.184Z,28.98
2022-12-29T02:24:38.669Z,31.73
2022-12-29T02:25:21.773Z,34.05
2022-12-29T02:26:02.780Z,34.10
2022-12-29T02:26:51.216Z,29.75
2022-12-29T02:27:53.140Z,32.38
2022-12-29T02:28:54.166Z,32.58
2022-12-29T02:29:41.244Z,31.45
2022-12-29T02:30:08.814Z,35.10
2022-12-29T02:30:46.904Z,35.15
2022-12-29T02:31:13.578Z,33.45
2022-12-29T02:31:37.963Z,33.13
2022-12-29T02:32:01.099Z,34.70
2022-12-29T02:32:26.248Z,31.75
2022-12-29T02:32:53.860Z,31.63
2022-12-29T02:33:30.255Z,34.58
2022-12-29T02:33:59.440Z,33.90
2022-12-29T02:34:24.979Z,32.47
2022-12-29T02:34:52.229Z,31.10
2022-12-29T02:35:19.042Z,30.13
2022-12-29T02:35:45.526Z,32.17
2022-12-29T02:36:11.844Z,30.13
2022-12-29T02:36:39.343Z,34.55
2022-12-29T02:37:04.049Z,31.85
2022-12-29T02:37:30.509Z,29.83
2022-12-29T02:37:57.525Z,32.75
2022-12-29T02:38:24.012Z,33.53
2022-12-29T02:38:51.892Z,33.38
2022-12-29T02:39:17.352Z,32.40
2022-12-29T02:39:51.531Z,33.03
2022-12-29T02:40:20.318Z,35.10
2022-12-29T02:40:44.663Z,33.22
2022-12-29T02:41:09.473Z,33.60
2022-12-29T02:41:34.175Z,32.17
2022-12-29T02:41:59.566Z,30.35
2022-12-29T02:42:24.489Z,33.55
2022-12-29T02:42:50.328Z,33.92
2022-12-29T02:43:19.101Z,32.35
2022-12-29T02:43:45.663Z,33.88
2022-12-29T02:44:11.600Z,33.60
2022-12-29T02:44:39.401Z,30.45
2022-12-29T02:45:05.033Z,31.15
2022-12-29T02:45:30.604Z,31.02
2022-12-29T02:45:56.171Z,31.67
2022-12-29T02:46:20.910Z,30.55
2022-12-29T02:46:46.257Z,29.52
2022-12-29T02:47:12.554Z,29.77
2022-12-29T02:47:38.644Z,28.83
2022-12-29T02:48:05.168Z,30.80
2022-12-29T02:48:30.466Z,33.25
2022-12-29T02:48:56.406Z,30.48
2022-12-29T02:49:21.434Z,33.13
2022-12-29T02:49:47.529Z,32.30
2022-12-29T02:50:13.435Z,30.52
2022-12-29T02:50:39.448Z,32.95
2022-12-29T02:51:03.239Z,31.63
2022-12-29T02:51:27.754Z,32.08
2022-12-29T02:51:53.160Z,32.42
2022-12-29T02:52:17.614Z,32.28
2022-12-29T02:52:43.223Z,31.08
2022-12-29T02:53:08.243Z,30.75
2022-12-29T02:53:49.933Z,34.42
2022-12-29T02:54:31.221Z,35.78
2022-12-29T02:54:55.218Z,34.22
2022-12-29T02:55:18.073Z,32.10
2022-12-29T02:55:42.294Z,34.90
2022-12-29T02:56:05.450Z,35.60
2022-12-29T02:56:28.427Z,34.00
2022-12-29T02:56:51.150Z,32.38
2022-12-29T02:57:15.961Z,33.05
2022-12-29T02:57:41.145Z,33.22
2022-12-29T02:58:17.059Z,32.70
2022-12-29T02:58:40.229Z,31.27
2022-12-29T02:59:02.971Z,36.28
2022-12-29T02:59:25.853Z,31.83
2022-12-29T02:59:49.228Z,33.75
2022-12-29T03:00:13.616Z,32.83
2022-12-29T03:00:38.079Z,32.15
2022-12-29T03:01:10.435Z,35.63
2022-12-29T03:01:40.575Z,33.20
2022-12-29T03:02:18.502Z,33.72
2022-12-29T03:02:51.127Z,32.15
2022-12-29T03:03:19.445Z,30.67
2022-12-29T03:03:47.874Z,32.15
2022-12-29T03:04:21.228Z,31.20
2022-12-29T03:04:49.718Z,31.95
2022-12-29T03:05:19.222Z,32.65
2022-12-29T03:06:00.128Z,31.88
2022-12-29T03:06:30.146Z,33.33
2022-12-29T03:06:57.766Z,33.40
2022-12-29T03:07:24.191Z,34.72
2022-12-29T03:07:51.492Z,35.85
2022-12-29T03:08:18.870Z,30.42
2022-12-29T03:08:48.709Z,32.80
2022-12-29T03:09:18.748Z,34.08
2022-12-29T03:09:44.831Z,33.03
2022-12-29T03:10:12.608Z,30.98
2022-12-29T03:10:40.367Z,32.20
2022-12-29T03:11:04.556Z,32.83
2022-12-29T03:11:47.711Z,33.72
2022-12-29T03:12:15.365Z,33.88
2022-12-29T03:13:01.903Z,35.25
2022-12-29T03:13:46.139Z,35.53
2022-12-29T03:14:29.237Z,36.28
2022-12-29T03:15:16.983Z,32.83
2022-12-29T03:16:03.525Z,34.65
2022-12-29T03:16:31.085Z,34.75
2022-12-29T03:16:57.387Z,34.53
2022-12-29T03:17:25.526Z,37.92
2022-12-29T03:17:52.982Z,37.25
2022-12-29T03:18:17.400Z,35.45
2022-12-29T03:18:46.745Z,38.38
2022-12-29T03:19:12.080Z,38.75
2022-12-29T03:19:36.464Z,37.60
2022-12-29T03:20:02.747Z,38.95
2022-12-29T03:20:27.773Z,35.75
2022-12-29T03:20:53.842Z,37.33
2022-12-29T03:21:19.528Z,37.70
2022-12-29T03:22:03.585Z,40.25
2022-12-29T03:22:28.575Z,38.45
2022-12-29T03:22:51.439Z,35.50
2022-12-29T03:23:14.237Z,36.45
2022-12-29T03:23:37.197Z,36.30
2022-12-29T03:24:00.045Z,35.17
2022-12-29T03:24:25.498Z,36.03
2022-12-29T03:24:51.241Z,36.58
2022-12-29T03:25:16.312Z,35.38
2022-12-29T03:25:40.591Z,35.28
2022-12-29T03:26:04.597Z,34.05
2022-12-29T03:26:27.338Z,35.63
2022-12-29T03:26:50.097Z,34.65
2022-12-29T03:27:14.969Z,33.33
2022-12-29T03:27:39.853Z,33.03
2022-12-29T03:28:04.516Z,33.67
2022-12-29T03:28:28.967Z,33.78
2022-12-29T03:28:53.168Z,32.58
2022-12-29T03:29:16.015Z,36.40
2022-12-29T03:29:42.409Z,33.67
2022-12-29T03:30:07.369Z,34.40
2022-12-29T03:30:30.764Z,34.45
2022-12-29T03:30:53.588Z,38.92
2022-12-29T03:31:16.699Z,40.63
2022-12-29T03:31:41.659Z,40.58
2022-12-29T03:32:05.336Z,41.42
2022-12-29T03:32:32.530Z,42.50
2022-12-29T03:32:56.982Z,42.28
2022-12-29T03:33:29.067Z,42.17
2022-12-29T03:33:52.083Z,43.33
2022-12-29T03:34:14.992Z,43.28
2022-12-29T03:34:37.956Z,44.53
2022-12-29T03:35:00.724Z,41.10
2022-12-29T03:35:24.272Z,45.42
2022-12-29T03:35:48.026Z,43.05
2022-12-29T03:36:13.222Z,41.50
2022-12-29T03:36:40.349Z,39.90
2022-12-29T03:37:06.980Z,39.22
2022-12-29T03:37:34.110Z,40.13
2022-12-29T03:38:00.629Z,42.97
2022-12-29T03:38:26.078Z,44.28
2022-12-29T03:38:51.002Z,43.60
2022-12-29T03:39:14.035Z,41.95
2022-12-29T03:39:37.443Z,43.10
2022-12-29T03:40:00.201Z,42.63
2022-12-29T03:40:23.071Z,41.67
2022-12-29T03:40:47.265Z,40.70
2022-12-29T03:41:12.374Z,43.15
2022-12-29T03:41:35.396Z,40.90
2022-12-29T03:42:00.870Z,44.33
2022-12-29T03:42:25.365Z,48.15
2022-12-29T03:42:48.331Z,48.60
2022-12-29T03:43:11.196Z,43.45
2022-12-29T03:43:34.283Z,40.40
2022-12-29T03:43:57.658Z,40.20
2022-12-29T03:44:20.497Z,37.80
2022-12-29T03:44:46.733Z,44.75
2022-12-29T03:45:10.644Z,42.05
2022-12-29T03:45:33.538Z,41.10
2022-12-29T03:45:56.392Z,40.65
2022-12-29T03:46:19.602Z,41.28
2022-12-29T03:46:43.958Z,41.22
2022-12-29T03:47:07.292Z,40.80
2022-12-29T03:47:30.593Z,41.05
2022-12-29T03:47:53.462Z,41.78
2022-12-29T03:48:16.279Z,40.30
2022-12-29T03:48:39.058Z,42.65
2022-12-29T03:49:02.014Z,40.88
2022-12-29T03:49:25.899Z,41.53
2022-12-29T03:49:48.744Z,41.17
2022-12-29T03:50:13.133Z,39.78
2022-12-29T03:50:35.959Z,41.50
2022-12-29T03:50:58.805Z,41.88
2022-12-29T03:51:21.594Z,41.55
2022-12-29T03:51:44.590Z,42.05
2022-12-29T03:52:07.387Z,43.25
2022-12-29T03:52:30.248Z,42.08
2022-12-29T03:52:52.946Z,41.00
2022-12-29T03:53:15.677Z,42.17
2022-12-29T03:53:38.573Z,41.40
2022-12-29T03:54:01.376Z,42.63
2022-12-29T03:54:24.251Z,41.30
2022-12-29T03:54:47.667Z,41.70
2022-12-29T03:55:10.772Z,40.17
2022-12-29T03:55:33.602Z,41.20
2022-12-29T03:55:56.930Z,41.90
2022-12-29T03:56:19.695Z,38.72
2022-12-29T03:56:42.580Z,39.45
2022-12-29T03:57:05.443Z,38.08
2022-12-29T03:57:28.377Z,39.35
2022-12-29T03:57:51.208Z,39.38
2022-12-29T03:58:14.407Z,39.35
2022-12-29T03:58:37.335Z,40.05
2022-12-29T03:59:00.344Z,40.63
2022-12-29T03:59:23.266Z,42.45
2022-12-29T03:59:47.217Z,42.95
2022-12-29T04:00:12.401Z,38.65
2022-12-29T04:00:35.139Z,38.85
2022-12-29T04:00:58.410Z,38.88
2022-12-29T04:01:21.227Z,38.72
2022-12-29T04:01:45.681Z,38.58
2022-12-29T04:02:08.789Z,39.75
2022-12-29T04:02:31.845Z,39.03
2022-12-29T04:02:55.560Z,41.65
2022-12-29T04:03:19.835Z,41.17
2022-12-29T04:03:42.648Z,38.17
2022-12-29T04:04:05.684Z,39.75
2022-12-29T04:04:28.496Z,38.40
2022-12-29T04:04:51.271Z,41.25
2022-12-29T04:05:14.752Z,42.38
2022-12-29T04:05:37.727Z,41.70
2022-12-29T04:06:00.540Z,40.53
2022-12-29T04:06:23.432Z,41.22
2022-12-29T04:06:46.525Z,42.08
2022-12-29T04:07:09.305Z,42.15
2022-12-29T04:07:32.297Z,39.85
2022-12-29T04:07:55.022Z,41.67
2022-12-29T04:08:17.772Z,41.83
2022-12-29T04:08:40.615Z,42.10
2022-12-29T04:09:03.489Z,40.35
2022-12-29T04:09:26.413Z,41.03
2022-12-29T04:09:49.313Z,39.47
2022-12-29T04:10:12.063Z,37.72
2022-12-29T04:10:35.038Z,36.97
2022-12-29T04:10:57.820Z,38.47
2022-12-29T04:11:21.506Z,39.25
2022-12-29T04:11:44.481Z,41.30
2022-12-29T04:12:07.393Z,41.83
2022-12-29T04:12:30.293Z,41.13
2022-12-29T04:12:53.129Z,41.78
2022-12-29T04:13:15.868Z,39.45
2022-12-29T04:13:42.005Z,38.20
2022-12-29T04:14:04.894Z,36.85
2022-12-29T04:14:27.754Z,39.10
2022-12-29T04:14:50.603Z,35.80
2022-12-29T04:15:13.464Z,34.83
2022-12-29T04:15:37.895Z,33.35
2022-12-29T04:16:00.835Z,35.85
2022-12-29T04:16:23.688Z,34.25
2022-12-29T04:16:50.669Z,38.38
2022-12-29T04:17:13.478Z,36.38
2022-12-29T04:17:37.143Z,36.72
2022-12-29T04:18:00.159Z,38.85
2022-12-29T04:18:22.958Z,37.88
2022-12-29T04:18:45.883Z,36.80
2022-12-29T04:19:08.820Z,36.47
2022-12-29T04:19:31.669Z,39.05
2022-12-29T04:20:14.297Z,39.15
2022-12-29T04:20:55.759Z,39.72
2022-12-29T04:21:18.563Z,38.97
2022-12-29T04:21:41.372Z,38.17
2022-12-29T04:22:04.125Z,34.60
2022-12-29T04:22:27.092Z,35.20
2022-12-29T04:22:50.169Z,36.67
2022-12-29T04:23:13.171Z,35.10
2022-12-29T04:23:36.745Z,36.33
2022-12-29T04:23:59.635Z,37.63
2022-12-29T04:24:22.349Z,37.13
2022-12-29T04:24:45.307Z,35.97
2022-12-29T04:25:09.378Z,37.45
2022-12-29T04:25:32.341Z,37.70
2022-12-29T04:25:55.361Z,37.30
2022-12-29T04:26:18.167Z,39.05
2022-12-29T04:26:40.963Z,37.15
2022-12-29T04:27:03.860Z,36.67
2022-12-29T04:27:26.887Z,36.13
2022-12-29T04:27:49.688Z,35.17
2022-12-29T04:28:12.399Z,35.35
2022-12-29T04:28:35.375Z,34.95
2022-12-29T04:28:58.460Z,36.67
2022-12-29T04:29:21.472Z,35.75
2022-12-29T04:29:44.176Z,35.53
2022-12-29T04:30:08.968Z,35.10
2022-12-29T04:30:31.720Z,35.33
2022-12-29T04:30:54.547Z,35.38
2022-12-29T04:31:17.404Z,38.10
2022-12-29T04:31:41.614Z,34.30
2022-12-29T04:32:07.163Z,35.97
2022-12-29T04:32:30.393Z,35.47
2022-12-29T04:32:53.254Z,35.15
2022-12-29T04:33:16.103Z,35.97
2022-12-29T04:33:41.704Z,33.97
2022-12-29T04:34:04.562Z,33.13
2022-12-29T04:34:27.384Z,38.08
2022-12-29T04:34:50.162Z,35.95
2022-12-29T04:35:12.938Z,34.03
2022-12-29T04:35:35.726Z,33.88
2022-12-29T04:35:58.534Z,32.03
2022-12-29T04:36:24.339Z,32.85
2022-12-29T04:36:52.344Z,36.83
2022-12-29T04:37:15.114Z,34.40
2022-12-29T04:37:37.898Z,36.00
2022-12-29T04:38:00.602Z,33.90
2022-12-29T04:38:23.889Z,36.17
2022-12-29T04:38:46.643Z,32.72
2022-12-29T04:39:09.424Z,31.65
2022-12-29T04:39:32.191Z,32.75
2022-12-29T04:39:54.967Z,33.08
2022-12-29T04:40:17.847Z,32.00
2022-12-29T04:40:40.878Z,31.33
2022-12-29T04:41:03.759Z,33.33
2022-12-29T04:41:26.519Z,31.70
2022-12-29T04:41:49.221Z,32.08
2022-12-29T04:42:12.005Z,31.33
2022-12-29T04:42:34.754Z,32.35
2022-12-29T04:42:57.633Z,29.02
2022-12-29T04:43:20.828Z,32.20
2022-12-29T04:43:43.533Z,30.48
2022-12-29T04:44:06.474Z,34.10
2022-12-29T04:44:30.273Z,30.88
2022-12-29T04:44:53.097Z,30.08
2022-12-29T04:45:16.008Z,31.70
2022-12-29T04:45:38.742Z,30.45
2022-12-29T04:46:01.804Z,31.88
2022-12-29T04:46:24.653Z,30.38
2022-12-29T04:46:47.437Z,31.05
2022-12-29T04:47:11.748Z,31.55
2022-12-29T04:47:34.646Z,30.05
2022-12-29T04:47:57.527Z,31.67
2022-12-29T04:48:20.363Z,31.75
2022-12-29T04:48:43.088Z,31.08
2022-12-29T04:49:09.942Z,31.88
2022-12-29T04:49:32.988Z,32.05
2022-12-29T04:49:55.780Z,31.05
2022-12-29T04:50:18.576Z,31.48
2022-12-29T04:50:41.435Z,28.75
2022-12-29T04:51:04.409Z,32.50
2022-12-29T04:51:27.285Z,30.80
2022-12-29T04:51:50.033Z,30.85
2022-12-29T04:52:12.715Z,27.33
2022-12-29T04:52:35.593Z,29.23
2022-12-29T04:52:59.435Z,30.30
2022-12-29T04:53:22.194Z,27.95
2022-12-29T04:53:44.891Z,32.38
2022-12-29T04:54:07.649Z,34.63
2022-12-29T04:54:30.493Z,31.98
2022-12-29T04:54:53.295Z,32.65
2022-12-29T04:55:16.225Z,33.30
2022-12-29T04:55:41.335Z,33.80
2022-12-29T04:56:04.253Z,35.22
2022-12-29T04:56:27.020Z,31.45
2022-12-29T04:56:49.814Z,31.73
2022-12-29T04:57:12.566Z,31.85
2022-12-29T04:57:35.374Z,34.75
2022-12-29T04:57:58.149Z,35.00
2022-12-29T04:58:23.153Z,32.13
2022-12-29T04:58:46.139Z,31.70
2022-12-29T04:59:08.899Z,31.67
2022-12-29T04:59:31.716Z,34.13
2022-12-29T04:59:54.491Z,35.45
2022-12-29T05:00:17.480Z,31.52
2022-12-29T05:00:41.531Z,32.05
2022-12-29T05:01:04.263Z,32.63
2022-12-29T05:01:27.285Z,31.85
2022-12-29T05:01:50.193Z,31.38
2022-12-29T05:02:14.809Z,33.83
2022-12-29T05:02:38.059Z,33.40
2022-12-29T05:03:01.258Z,34.25
2022-12-29T05:03:24.523Z,30.05
2022-12-29T05:03:47.553Z,32.33
2022-12-29T05:04:10.463Z,33.20
2022-12-29T05:04:33.195Z,32.50
2022-12-29T05:04:56.553Z,32.28
2022-12-29T05:05:19.374Z,35.85
2022-12-29T05:05:42.513Z,34.40
2022-12-29T05:06:06.150Z,31.42
2022-12-29T05:06:28.924Z,31.88
2022-12-29T05:06:51.725Z,30.58
2022-12-29T05:07:14.530Z,30.58
2022-12-29T05:07:37.383Z,30.58
2022-12-29T05:08:00.099Z,34.10
2022-12-29T05:08:27.791Z,33.63
2022-12-29T05:08:51.134Z,33.05
2022-12-29T05:09:13.828Z,34.28
2022-12-29T05:09:37.330Z,32.63
2022-12-29T05:10:00.216Z,34.45
2022-12-29T05:10:22.928Z,34.20
2022-12-29T05:10:46.624Z,32.88
2022-12-29T05:11:10.504Z,34.95
2022-12-29T05:11:33.474Z,31.27
2022-12-29T05:11:56.353Z,32.70
2022-12-29T05:12:19.449Z,33.70
2022-12-29T05:12:42.425Z,33.05
2022-12-29T05:13:05.196Z,33.10
2022-12-29T05:13:27.936Z,31.25
2022-12-29T05:13:50.776Z,30.88
2022-12-29T05:14:13.519Z,32.70
2022-12-29T05:14:37.437Z,33.33
2022-12-29T05:15:00.508Z,36.08
2022-12-29T05:15:23.199Z,35.67
2022-12-29T05:15:49.704Z,32.22
2022-12-29T05:16:12.563Z,33.80
2022-12-29T05:16:35.523Z,33.95
2022-12-29T05:16:58.482Z,31.65
2022-12-29T05:17:22.725Z,33.13
2022-12-29T05:17:45.448Z,34.63
2022-12-29T05:18:08.253Z,33.70
2022-12-29T05:18:30.999Z,34.60
2022-12-29T05:18:53.811Z,35.55
2022-12-29T05:19:17.730Z,37.50
2022-12-29T05:19:41.634Z,37.85
2022-12-29T05:20:05.766Z,34.67
2022-12-29T05:20:28.707Z,36.92
2022-12-29T05:20:51.450Z,37.58
2022-12-29T05:21:14.165Z,38.38
2022-12-29T05:21:37.488Z,36.70
2022-12-29T05:22:00.269Z,36.17
2022-12-29T05:22:23.058Z,34.58
2022-12-29T05:22:45.893Z,34.45
2022-12-29T05:23:08.742Z,34.65
2022-12-29T05:23:31.524Z,35.65
2022-12-29T05:23:54.431Z,33.45
2022-12-29T05:24:17.185Z,36.88
2022-12-29T05:24:40.210Z,35.28
2022-12-29T05:25:02.921Z,33.97
2022-12-29T05:25:25.900Z,35.00
2022-12-29T05:25:48.651Z,37.17
2022-12-29T05:26:11.456Z,33.00
2022-12-29T05:26:34.290Z,36.90
2022-12-29T05:26:56.965Z,35.60
2022-12-29T05:27:19.934Z,35.30
2022-12-29T05:27:42.696Z,34.28
2022-12-29T05:28:05.431Z,33.85
2022-12-29T05:28:28.249Z,32.65
2022-12-29T05:28:51.029Z,32.35
2022-12-29T05:29:13.830Z,30.77
2022-12-29T05:29:36.854Z,30.02
2022-12-29T05:29:59.775Z,32.72
2022-12-29T05:30:23.562Z,32.80
2022-12-29T05:30:48.981Z,32.33
2022-12-29T05:31:11.899Z,30.83